Time;durP1;ratioP1;P1;durP2;ratioP2;P2;SDS_P1;SDS_P2;PMS_P1;PMS_P2;Temp;Humidity;BMP_temperature;BMP_pressure;BME280_temperature;BME280_humidity;BME280_pressure;Samples;Min_cycle;Max_cycle;Signal;HPM_P1;HPM_P2
2022/10/11 00:00:54;;;;;;;13.43;2.50;;;11.60;99.90;;;;;;5135830;27;20065;-81
2022/10/11 00:03:20;;;;;;;14.90;2.63;;;11.60;99.90;;;;;;5135543;27;20409;-81
2022/10/11 00:05:46;;;;;;;17.60;3.05;;;11.60;99.90;;;;;;5154661;27;20042;-81
2022/10/11 00:08:13;;;;;;;10.85;2.40;;;11.60;99.90;;;;;;5169290;27;20027;-81
2022/10/11 00:10:39;;;;;;;18.80;2.42;;;11.60;99.90;;;;;;5155832;27;20054;-81
2022/10/11 00:13:06;;;;;;;17.17;3.28;;;11.60;99.90;;;;;;5118674;27;20064;-81
2022/10/11 00:15:32;;;;;;;15.63;2.38;;;11.60;99.90;;;;;;5154608;27;20042;-81
2022/10/11 00:17:58;;;;;;;19.80;3.03;;;11.60;99.90;;;;;;5154376;27;20054;-81
2022/10/11 00:20:25;;;;;;;19.20;3.33;;;11.60;99.90;;;;;;5154523;27;20562;-81
2022/10/11 00:22:51;;;;;;;18.27;2.72;;;11.60;99.90;;;;;;5159669;27;20058;-80
2022/10/11 00:25:17;;;;;;;16.90;3.13;;;11.60;99.90;;;;;;5160564;27;20188;-80
2022/10/11 00:27:43;;;;;;;17.95;2.70;;;11.60;99.90;;;;;;5153800;27;20561;-80
2022/10/11 00:30:10;;;;;;;18.70;2.90;;;11.50;99.90;;;;;;5117558;27;20409;-80
2022/10/11 00:32:37;;;;;;;16.73;2.20;;;11.50;99.90;;;;;;5117697;27;20086;-80
2022/10/11 00:35:05;;;;;;;14.07;3.20;;;11.40;99.90;;;;;;5135675;27;20039;-80
2022/10/11 00:37:37;;;;;;;11.13;2.58;;;11.40;99.90;;;;;;5126255;27;20058;-80
2022/10/11 00:40:14;;;;;;;13.73;3.03;;;11.30;99.90;;;;;;5134955;27;20050;-80
2022/10/11 00:42:40;;;;;;;12.45;2.55;;;11.30;99.90;;;;;;5153581;27;20147;-80
2022/10/11 00:45:30;;;;;;;17.42;2.40;;;11.30;99.90;;;;;;5134775;27;20068;-81
2022/10/11 00:48:02;;;;;;;15.85;2.53;;;11.30;99.90;;;;;;5153749;27;20038;-80
2022/10/11 00:50:32;;;;;;;17.40;2.92;;;11.40;99.90;;;;;;5141100;27;20046;-80
2022/10/11 00:53:04;;;;;;;12.80;2.63;;;11.30;99.90;;;;;;5152831;27;20035;-80
2022/10/11 00:55:36;;;;;;;13.30;2.80;;;11.30;99.90;;;;;;5153049;27;20054;-80
2022/10/11 00:58:02;;;;;;;17.58;2.58;;;11.10;99.90;;;;;;5153416;27;20395;-80
2022/10/11 01:00:28;;;;;;;14.07;2.80;;;10.90;99.90;;;;;;5134763;27;20061;-80
2022/10/11 01:02:54;;;;;;;13.43;2.70;;;10.80;99.90;;;;;;5139945;27;20075;-80
2022/10/11 01:05:20;;;;;;;12.85;2.00;;;10.80;99.90;;;;;;5134466;27;20046;-80
2022/10/11 01:07:46;;;;;;;15.32;2.40;;;10.70;99.90;;;;;;5153298;27;20073;-80
2022/10/11 01:10:13;;;;;;;19.55;3.97;;;10.60;99.90;;;;;;5153236;27;20043;-79
2022/10/11 01:12:59;;;;;;;17.30;3.25;;;10.70;99.90;;;;;;5134626;27;20081;-80
2022/10/11 01:15:29;;;;;;;19.42;4.85;;;10.70;99.90;;;;;;5134741;27;20046;-80
2022/10/11 01:18:19;;;;;;;14.48;2.45;;;10.70;99.90;;;;;;5140769;27;20160;-80
2022/10/11 01:21:12;;;;;;;20.60;4.03;;;10.50;99.90;;;;;;5153072;27;20050;-80
2022/10/11 01:23:47;;;;;;;18.10;2.55;;;10.40;99.90;;;;;;5134325;27;20062;-80
2022/10/11 01:26:33;;;;;;;;;;;10.40;99.90;;;;;;5153377;27;20053;-81
2022/10/11 01:29:11;;;;;;;;;;;10.40;99.90;;;;;;5135072;27;20347;-80
2022/10/11 01:31:52;;;;;;;11.63;1.90;;;10.50;99.90;;;;;;5164954;27;19927;-81
2022/10/11 01:34:56;;;;;;;13.10;3.22;;;10.60;99.90;;;;;;5134387;27;20045;-80
2022/10/11 01:37:32;;;;;;;16.55;2.72;;;10.70;99.90;;;;;;5062066;27;20142;-81
2022/10/11 01:40:12;;;;;;;11.05;1.75;;;10.80;99.90;;;;;;5131992;27;20063;-80
2022/10/11 01:42:40;;;;;;;17.13;2.58;;;10.90;99.90;;;;;;5113447;28;20448;-81
2022/10/11 01:45:16;;;;;;;10.85;2.45;;;10.90;99.90;;;;;;5138448;27;20070;-80
2022/10/11 01:47:44;;;;;;;19.15;2.65;;;10.80;99.90;;;;;;5131898;27;20135;-81
2022/10/11 01:50:32;;;;;;;13.63;2.35;;;10.60;99.90;;;;;;5131945;27;20059;-80
2022/10/11 01:53:17;;;;;;;14.70;2.42;;;10.60;99.90;;;;;;5130615;28;20181;-80
2022/10/11 01:56:08;;;;;;;16.38;3.13;;;10.60;99.90;;;;;;5130815;28;20051;-82
2022/10/11 01:59:00;;;;;;;15.50;2.60;;;10.70;99.90;;;;;;5137013;28;20106;-80
2022/10/11 02:01:42;;;;;;;19.42;3.92;;;10.70;99.90;;;;;;5100029;27;20058;-80
2022/10/11 02:04:18;;;;;;;24.40;3.22;;;10.70;99.90;;;;;;5133376;27;20571;-80
2022/10/11 02:07:11;;;;;;;18.33;2.83;;;10.70;99.90;;;;;;5134887;27;20051;-80
2022/10/11 02:09:51;;;;;;;12.70;2.53;;;10.80;99.90;;;;;;5084326;27;20047;-80
2022/10/11 02:12:27;;;;;;;14.40;3.20;;;10.80;99.90;;;;;;5134409;27;20050;-80
2022/10/11 02:14:55;;;;;;;15.70;2.90;;;10.80;99.90;;;;;;5134691;27;20502;-80
2022/10/11 02:17:28;;;;;;;22.85;3.47;;;10.80;99.90;;;;;;5135760;27;20155;-80
2022/10/11 02:19:58;;;;;;;13.05;2.45;;;10.80;99.90;;;;;;5135897;27;20051;-81
2022/10/11 02:22:32;;;;;;;14.07;2.78;;;10.80;99.90;;;;;;5140837;27;20051;-81
2022/10/11 02:25:01;;;;;;;16.58;2.63;;;10.80;99.90;;;;;;5139902;27;20057;-81
2022/10/11 02:27:33;;;;;;;18.23;2.90;;;10.80;99.90;;;;;;5135664;27;20043;-80
2022/10/11 02:30:03;;;;;;;18.40;2.85;;;10.70;99.90;;;;;;5134076;27;20055;-79
2022/10/11 02:32:30;;;;;;;17.10;3.80;;;10.50;99.90;;;;;;5133959;27;20047;-79
2022/10/11 02:34:59;;;;;;;16.13;2.67;;;10.40;99.90;;;;;;5133887;27;20054;-80
2022/10/11 02:37:49;;;;;;;16.85;2.47;;;10.20;99.90;;;;;;5121841;27;20142;-80
2022/10/11 02:40:37;;;;;;;18.90;2.50;;;10.00;99.90;;;;;;5116745;27;20044;-80
2022/10/11 02:43:09;;;;;;;16.65;2.67;;;9.90;99.90;;;;;;5135414;27;20428;-80
2022/10/11 02:45:39;;;;;;;18.02;3.75;;;9.80;99.90;;;;;;5135209;27;20051;-80
2022/10/11 02:48:07;;;;;;;23.95;2.92;;;9.70;99.90;;;;;;5135010;27;20134;-80
2022/10/11 02:50:33;;;;;;;18.00;3.08;;;9.50;99.90;;;;;;5135625;27;20055;-81
2022/10/11 02:52:59;;;;;;;12.45;2.22;;;9.50;99.90;;;;;;5139508;27;20057;-80
2022/10/11 02:55:25;;;;;;;14.00;2.88;;;9.30;99.90;;;;;;5135685;27;20050;-80
2022/10/11 02:57:51;;;;;;;19.85;2.53;;;9.20;99.90;;;;;;5134130;27;20047;-80
2022/10/11 03:00:16;;;;;;;15.02;3.10;;;9.20;99.90;;;;;;5133387;27;20111;-80
2022/10/11 03:02:42;;;;;;;18.05;2.90;;;9.10;99.90;;;;;;5133320;27;20086;-80
2022/10/11 03:05:08;;;;;;;19.23;3.03;;;9.00;99.90;;;;;;5133959;27;20094;-80
2022/10/11 03:07:34;;;;;;;14.48;2.25;;;9.00;99.90;;;;;;5137391;27;20047;-80
2022/10/11 03:10:00;;;;;;;18.67;2.95;;;8.90;99.90;;;;;;5135143;27;20059;-81
2022/10/11 03:12:26;;;;;;;13.80;2.88;;;8.80;99.90;;;;;;5134618;27;20509;-80
2022/10/11 03:14:52;;;;;;;8.98;2.45;;;8.80;99.90;;;;;;5134307;27;20039;-80
2022/10/11 03:17:18;;;;;;;23.08;2.60;;;8.70;99.90;;;;;;5132793;27;20510;-79
2022/10/11 03:19:44;;;;;;;18.08;3.13;;;8.70;99.90;;;;;;5132992;27;20039;-80
2022/10/11 03:22:10;;;;;;;15.27;2.80;;;8.70;99.90;;;;;;5137376;27;20517;-80
2022/10/11 03:24:35;;;;;;;13.02;2.50;;;8.60;99.90;;;;;;5134156;27;20403;-80
2022/10/11 03:27:01;;;;;;;18.75;2.45;;;8.60;99.90;;;;;;5133145;27;20507;-80
2022/10/11 03:29:27;;;;;;;13.27;2.53;;;8.50;99.90;;;;;;5134290;27;20411;-80
2022/10/11 03:31:53;;;;;;;16.85;2.78;;;8.50;99.90;;;;;;5133395;27;20047;-80
2022/10/11 03:34:19;;;;;;;22.30;2.83;;;8.40;99.90;;;;;;5133221;27;20136;-80
2022/10/11 03:36:45;;;;;;;17.58;3.17;;;8.40;99.90;;;;;;5139497;27;20053;-80
2022/10/11 03:39:12;;;;;;;14.27;2.50;;;8.30;99.90;;;;;;5134693;27;20077;-79
2022/10/11 03:41:37;;;;;;;18.05;3.42;;;8.30;99.90;;;;;;5135556;27;20055;-80
2022/10/11 03:44:03;;;;;;;13.30;2.85;;;8.20;99.90;;;;;;5135440;27;20093;-80
2022/10/11 03:46:29;;;;;;;16.70;2.70;;;8.20;99.90;;;;;;5135140;27;20051;-80
2022/10/11 03:48:55;;;;;;;13.27;2.63;;;8.20;99.90;;;;;;5133668;27;20142;-80
2022/10/11 03:51:21;;;;;;;15.02;2.20;;;8.20;99.90;;;;;;5139049;27;20050;-80
2022/10/11 03:53:47;;;;;;;19.52;2.88;;;8.10;99.90;;;;;;5134990;27;20508;-80
2022/10/11 03:56:13;;;;;;;19.58;2.97;;;8.10;99.90;;;;;;5134975;27;20104;-80
2022/10/11 03:58:40;;;;;;;17.42;3.00;;;8.10;99.90;;;;;;5134034;27;20455;-80
2022/10/11 04:01:07;;;;;;;15.32;2.33;;;8.10;99.90;;;;;;5133936;27;20100;-80
2022/10/11 04:03:33;;;;;;;13.57;2.33;;;8.00;99.90;;;;;;5132341;27;20498;-80
2022/10/11 04:05:59;;;;;;;19.85;3.33;;;8.00;99.90;;;;;;5137342;27;20514;-81
2022/10/11 04:08:24;;;;;;;16.10;2.25;;;8.00;99.90;;;;;;5134286;27;20070;-80
2022/10/11 04:10:50;;;;;;;18.90;3.50;;;8.10;99.90;;;;;;5135639;27;20059;-80
2022/10/11 04:13:16;;;;;;;24.23;3.40;;;8.00;99.90;;;;;;5117089;27;20058;-80
2022/10/11 04:15:42;;;;;;;18.00;2.53;;;8.00;99.90;;;;;;5132174;27;20055;-80
2022/10/11 04:18:09;;;;;;;21.35;3.15;;;8.00;99.90;;;;;;5133167;27;20051;-80
2022/10/11 04:20:35;;;;;;;16.52;3.33;;;8.00;99.90;;;;;;5119431;27;20051;-80
2022/10/11 04:23:01;;;;;;;17.13;2.90;;;8.00;99.90;;;;;;5133630;27;20043;-80
2022/10/11 04:25:27;;;;;;;18.58;2.70;;;7.90;99.90;;;;;;5133328;27;20112;-80
2022/10/11 04:27:52;;;;;;;17.35;3.50;;;7.90;99.90;;;;;;5131512;27;20495;-80
2022/10/11 04:30:19;;;;;;;15.90;2.72;;;7.90;99.90;;;;;;5133110;27;20148;-81
2022/10/11 04:32:45;;;;;;;15.75;3.28;;;7.90;99.90;;;;;;5133986;27;20112;-80
2022/10/11 04:35:11;;;;;;;15.70;2.05;;;7.90;99.90;;;;;;5137410;27;20043;-81
2022/10/11 04:37:37;;;;;;;16.80;2.90;;;7.90;99.90;;;;;;5131195;27;20051;-81
2022/10/11 04:40:04;;;;;;;12.45;2.85;;;7.80;99.90;;;;;;5131561;27;20055;-80
2022/10/11 04:42:30;;;;;;;14.73;3.90;;;7.80;99.90;;;;;;5133189;27;20100;-81
2022/10/11 04:44:56;;;;;;;15.75;3.65;;;7.80;99.90;;;;;;5131401;27;20043;-81
2022/10/11 04:47:22;;;;;;;19.58;3.03;;;7.80;99.90;;;;;;5132949;27;20118;-80
2022/10/11 04:49:48;;;;;;;10.85;2.20;;;7.80;99.90;;;;;;5137905;27;20672;-81
2022/10/11 04:52:14;;;;;;;18.85;3.45;;;7.80;99.90;;;;;;5132858;27;20091;-81
2022/10/11 04:54:40;;;;;;;9.68;2.40;;;7.80;99.90;;;;;;5132449;27;20138;-81
2022/10/11 04:57:05;;;;;;;14.43;2.97;;;7.80;99.90;;;;;;5132561;27;20464;-81
2022/10/11 04:59:31;;;;;;;18.05;3.08;;;7.80;99.90;;;;;;5132614;27;20043;-81
2022/10/11 05:01:57;;;;;;;17.20;2.33;;;7.80;99.90;;;;;;5131137;27;20054;-81
2022/10/11 05:04:23;;;;;;;18.98;2.85;;;7.80;99.90;;;;;;5136463;27;20047;-81
2022/10/11 05:06:50;;;;;;;17.23;3.10;;;7.80;99.90;;;;;;5113887;27;20126;-80
2022/10/11 05:09:16;;;;;;;17.45;3.40;;;7.80;99.90;;;;;;5132498;27;20046;-81
2022/10/11 05:11:42;;;;;;;15.82;2.97;;;7.80;99.90;;;;;;5132764;27;20399;-80
2022/10/11 05:14:07;;;;;;;16.95;2.53;;;7.80;99.90;;;;;;5131289;27;20039;-81
2022/10/11 05:16:34;;;;;;;14.38;2.30;;;7.70;99.90;;;;;;5131288;27;20051;-81
2022/10/11 05:18:59;;;;;;;16.77;2.70;;;7.70;99.90;;;;;;5137601;27;20097;-80
2022/10/11 05:21:27;;;;;;;16.30;2.38;;;7.70;99.90;;;;;;5132756;27;20083;-80
2022/10/11 05:23:55;;;;;;;19.02;2.78;;;7.80;99.90;;;;;;5132592;27;20528;-80
2022/10/11 05:26:22;;;;;;;17.45;3.03;;;7.80;99.90;;;;;;5132286;27;20404;-80
2022/10/11 05:28:48;;;;;;;14.93;2.25;;;7.80;99.90;;;;;;5130796;27;20050;-80
2022/10/11 05:31:14;;;;;;;18.00;3.15;;;7.80;99.90;;;;;;5132477;27;20043;-81
2022/10/11 05:33:40;;;;;;;15.10;2.83;;;7.80;99.90;;;;;;5123384;27;20047;-80
2022/10/11 05:36:07;;;;;;;17.33;2.40;;;7.70;99.90;;;;;;5135147;27;20050;-80
2022/10/11 05:38:33;;;;;;;18.20;2.72;;;7.70;99.90;;;;;;5146303;27;20055;-81
2022/10/11 05:41:01;;;;;;;19.25;4.75;;;7.70;99.90;;;;;;5152624;27;20107;-81
2022/10/11 05:43:27;;;;;;;14.07;2.60;;;7.70;99.90;;;;;;5134048;27;20057;-80
2022/10/11 05:45:54;;;;;;;14.80;3.30;;;7.70;99.90;;;;;;5152515;27;20061;-81
2022/10/11 05:48:20;;;;;;;22.73;3.95;;;7.70;99.90;;;;;;5141619;27;20054;-81
2022/10/11 05:50:46;;;;;;;16.02;3.25;;;7.70;99.90;;;;;;5155347;27;20122;-79
2022/10/11 05:53:12;;;;;;;11.40;2.60;;;7.70;99.90;;;;;;5153817;27;20047;-80
2022/10/11 05:55:41;;;;;;;12.02;2.55;;;7.70;99.90;;;;;;5116417;27;20055;-81
2022/10/11 05:58:11;;;;;;;14.93;2.40;;;7.70;99.90;;;;;;5116928;27;20043;-81
2022/10/11 06:00:37;;;;;;;12.23;3.40;;;7.70;99.90;;;;;;5152793;27;20058;-80
2022/10/11 06:03:05;;;;;;;19.35;3.20;;;7.70;99.90;;;;;;5158410;27;20062;-80
2022/10/11 06:05:32;;;;;;;19.40;3.00;;;7.70;99.90;;;;;;5154136;27;20050;-80
2022/10/11 06:07:58;;;;;;;13.77;2.80;;;7.80;99.90;;;;;;5152541;27;20057;-80
2022/10/11 06:10:24;;;;;;;13.68;2.92;;;7.80;99.90;;;;;;5152167;27;20043;-80
2022/10/11 06:12:50;;;;;;;14.88;2.60;;;7.80;99.90;;;;;;5133572;27;20051;-80
2022/10/11 06:15:16;;;;;;;15.68;3.03;;;7.80;99.90;;;;;;5152217;27;20103;-80
2022/10/11 06:17:42;;;;;;;12.77;3.25;;;7.90;99.90;;;;;;5152662;27;20525;-80
2022/10/11 06:20:08;;;;;;;18.52;3.25;;;7.90;99.90;;;;;;5141834;27;20045;-80
2022/10/11 06:22:38;;;;;;;12.48;3.22;;;8.00;99.90;;;;;;5135867;27;20047;-80
2022/10/11 06:25:04;;;;;;;18.13;3.92;;;8.00;99.90;;;;;;5137532;27;20054;-80
2022/10/11 06:27:30;;;;;;;12.52;2.13;;;8.00;99.90;;;;;;5133856;27;20118;-81
2022/10/11 06:29:56;;;;;;;20.58;3.03;;;8.10;99.90;;;;;;5133559;27;20078;-81
2022/10/11 06:32:22;;;;;;;14.77;2.47;;;8.10;99.90;;;;;;5152153;27;20093;-81
2022/10/11 06:34:48;;;;;;;20.42;3.65;;;8.10;99.90;;;;;;5151930;27;20108;-81
2022/10/11 06:37:14;;;;;;;18.00;4.10;;;8.20;99.90;;;;;;5133482;27;20062;-81
2022/10/11 06:39:44;;;;;;;21.58;4.03;;;8.20;99.90;;;;;;5135938;27;20050;-80
2022/10/11 06:42:10;;;;;;;17.27;2.97;;;8.30;99.90;;;;;;5151847;27;20062;-81
2022/10/11 06:44:37;;;;;;;17.50;3.00;;;8.30;99.90;;;;;;5133260;27;20047;-81
2022/10/11 06:47:04;;;;;;;23.83;4.40;;;8.40;99.90;;;;;;5133904;27;20402;-81
2022/10/11 06:49:30;;;;;;;16.85;3.53;;;8.50;99.90;;;;;;5152215;27;20051;-81
2022/10/11 06:51:56;;;;;;;21.58;4.30;;;8.50;99.90;;;;;;5153613;27;20055;-81
2022/10/11 06:54:23;;;;;;;18.40;3.80;;;8.60;99.90;;;;;;5155848;27;20517;-81
2022/10/11 06:56:49;;;;;;;14.60;3.42;;;8.70;99.90;;;;;;5139164;27;20053;-80
2022/10/11 06:59:15;;;;;;;25.27;3.35;;;8.70;99.90;;;;;;5156070;27;20056;-81
2022/10/11 07:01:41;;;;;;;17.80;3.17;;;8.80;99.90;;;;;;5155768;27;20106;-81
2022/10/11 07:04:07;;;;;;;21.05;5.00;;;8.90;99.90;;;;;;5155579;27;20035;-81
2022/10/11 07:06:37;;;;;;;15.38;4.00;;;9.00;99.90;;;;;;5136972;27;20070;-81
2022/10/11 07:09:04;;;;;;;20.40;4.10;;;9.10;99.90;;;;;;5155270;27;20053;-81
2022/10/11 07:11:30;;;;;;;15.85;2.92;;;9.20;99.90;;;;;;5162111;27;20219;-80
2022/10/11 07:13:58;;;;;;;13.18;2.55;;;9.20;99.90;;;;;;5142834;27;20038;-81
2022/10/11 07:16:25;;;;;;;19.45;3.40;;;9.40;99.90;;;;;;5155327;27;20058;-81
2022/10/11 07:18:53;;;;;;;17.30;3.60;;;9.50;99.90;;;;;;5136473;27;20086;-80
2022/10/11 07:21:19;;;;;;;13.48;2.40;;;9.60;99.90;;;;;;5155221;27;20101;-81
2022/10/11 07:23:45;;;;;;;13.98;2.20;;;9.80;99.90;;;;;;5155199;27;20078;-81
2022/10/11 07:26:11;;;;;;;16.83;3.35;;;9.90;99.90;;;;;;5155044;27;20047;-80
2022/10/11 07:28:38;;;;;;;17.45;4.55;;;10.00;99.90;;;;;;5146095;27;20072;-80
2022/10/11 07:31:07;;;;;;;18.92;3.08;;;10.10;99.90;;;;;;5156476;27;20047;-80
2022/10/11 07:33:33;;;;;;;16.10;3.28;;;10.10;99.90;;;;;;5155277;27;20053;-81
2022/10/11 07:35:59;;;;;;;20.40;4.07;;;10.10;99.90;;;;;;5154790;27;20507;-81
2022/10/11 07:38:25;;;;;;;16.25;3.42;;;10.10;99.90;;;;;;5154716;27;20042;-80
2022/10/11 07:40:51;;;;;;;18.85;3.97;;;10.10;99.90;;;;;;5154862;27;20095;-80
2022/10/11 07:43:17;;;;;;;13.57;2.63;;;10.10;99.90;;;;;;5119154;27;20137;-81
2022/10/11 07:45:50;;;;;;;16.33;3.40;;;10.20;99.90;;;;;;5161076;27;20051;-80
2022/10/11 07:48:16;;;;;;;15.15;2.63;;;10.30;99.90;;;;;;5154965;27;20047;-81
2022/10/11 07:50:42;;;;;;;18.77;2.53;;;10.30;99.90;;;;;;5154602;27;20104;-81
2022/10/11 07:53:08;;;;;;;13.55;2.65;;;10.40;99.90;;;;;;5154710;27;20042;-80
2022/10/11 07:55:39;;;;;;;13.63;2.20;;;10.40;99.90;;;;;;5154615;27;20054;-81
2022/10/11 07:58:09;;;;;;;10.65;3.33;;;10.50;99.90;;;;;;5154787;27;20043;-82
2022/10/11 08:00:35;;;;;;;13.43;3.88;;;10.60;99.90;;;;;;5158441;27;20050;-81
2022/10/11 08:03:05;;;;;;;21.33;3.65;;;10.70;99.90;;;;;;5159458;27;20050;-80
2022/10/11 08:05:33;;;;;;;17.45;3.33;;;10.80;99.90;;;;;;5155133;27;20043;-81
2022/10/11 08:07:59;;;;;;;15.63;2.40;;;10.90;99.90;;;;;;5136769;27;20111;-80
2022/10/11 08:10:25;;;;;;;29.33;3.80;;;11.00;99.90;;;;;;5154848;27;20042;-80
2022/10/11 08:12:52;;;;;;;13.93;2.50;;;11.20;99.90;;;;;;5136031;27;20086;-81
2022/10/11 08:15:19;;;;;;;15.63;2.22;;;11.30;99.90;;;;;;5155335;27;20047;-78
2022/10/11 08:17:45;;;;;;;18.88;3.72;;;11.40;99.90;;;;;;5157072;27;20092;-81
2022/10/11 08:20:12;;;;;;;18.42;3.35;;;11.50;99.90;;;;;;5152620;27;20497;-80
2022/10/11 08:22:38;;;;;;;24.92;4.45;;;11.70;99.90;;;;;;5152670;27;20509;-80
2022/10/11 08:25:04;;;;;;;18.92;2.88;;;11.80;99.90;;;;;;5153808;27;20057;-79
2022/10/11 08:27:30;;;;;;;12.23;2.75;;;11.90;99.90;;;;;;5137162;27;20077;-80
2022/10/11 08:29:56;;;;;;;23.85;3.45;;;12.00;99.90;;;;;;5156943;27;20413;-80
2022/10/11 08:32:22;;;;;;;17.77;2.65;;;12.20;99.90;;;;;;5153585;27;20038;-80
2022/10/11 08:34:47;;;;;;;7.80;2.90;;;12.20;99.90;;;;;;5153779;27;20046;-80
2022/10/11 08:37:13;;;;;;;16.55;2.55;;;12.40;99.90;;;;;;5131935;27;20051;-81
2022/10/11 08:39:39;;;;;;;15.77;3.15;;;12.40;99.90;;;;;;5133074;27;20422;-80
2022/10/11 08:42:36;;;;;;;18.73;4.03;;;12.60;99.90;;;;;;5132264;27;20055;-79
2022/10/11 08:45:15;;;;;;;14.18;2.95;;;12.70;99.90;;;;;;5135795;27;20066;-80
2022/10/11 08:47:45;;;;;;;19.75;2.92;;;12.90;99.90;;;;;;5132852;27;20051;-80
2022/10/11 08:50:19;;;;;;;15.98;2.20;;;13.10;99.90;;;;;;5132813;27;20058;-80
2022/10/11 08:52:58;;;;;;;15.27;3.13;;;13.20;99.90;;;;;;5132895;27;20070;-81
2022/10/11 08:55:28;;;;;;;25.98;2.85;;;13.40;99.90;;;;;;5132646;27;20570;-81
2022/10/11 08:57:55;;;;;;;12.45;3.30;;;13.50;99.90;;;;;;5135782;27;20092;-81
2022/10/11 09:00:22;;;;;;;13.07;2.33;;;13.60;99.90;;;;;;5136945;27;20135;-81
2022/10/11 09:03:09;;;;;;;15.45;2.85;;;13.70;99.90;;;;;;5114065;27;20051;-81
2022/10/11 09:05:48;;;;;;;14.73;2.90;;;13.80;99.90;;;;;;5132076;27;20518;-80
2022/10/11 09:08:43;;;;;;;19.35;4.15;;;14.00;99.90;;;;;;5131621;27;20043;-80
2022/10/11 09:11:14;;;;;;;17.33;2.20;;;14.20;99.90;;;;;;5042388;27;20060;-80
2022/10/11 09:14:05;;;;;;;15.30;2.20;;;14.40;99.90;;;;;;5119792;27;20047;-81
2022/10/11 09:16:50;;;;;;;12.35;2.30;;;14.60;99.90;;;;;;5083244;27;20130;-80
2022/10/11 09:19:25;;;;;;;;;;;14.60;99.90;;;;;;5114547;27;20050;-80
2022/10/11 09:22:05;;;;;;;17.55;2.78;;;14.80;99.90;;;;;;5130627;27;19926;-81
2022/10/11 09:24:53;;;;;;;16.00;2.28;;;14.80;99.90;;;;;;5117495;27;20055;-81
2022/10/11 09:27:20;;;;;;;17.05;2.13;;;14.70;99.90;;;;;;5131132;27;20055;-81
2022/10/11 09:30:03;;;;;;;13.75;2.60;;;14.60;99.90;;;;;;5131608;27;20039;-80
2022/10/11 09:32:44;;;;;;;16.02;3.33;;;14.50;99.90;;;;;;5131278;27;20476;-80
2022/10/11 09:35:17;;;;;;;16.80;2.22;;;14.30;99.90;;;;;;5131193;27;20043;-80
2022/10/11 09:38:01;;;;;;;12.15;2.20;;;14.20;99.90;;;;;;5141473;27;20058;-79
2022/10/11 09:40:37;;;;;;;15.40;2.78;;;14.20;99.90;;;;;;5124191;27;20058;-81
2022/10/11 09:43:03;;;;;;;15.68;2.25;;;14.30;99.90;;;;;;5152770;27;20526;-80
2022/10/11 09:45:29;;;;;;;13.10;2.63;;;14.40;99.90;;;;;;5117668;27;20074;-81
2022/10/11 09:47:58;;;;;;;17.23;2.65;;;14.60;99.90;;;;;;5134566;27;20109;-81
2022/10/11 09:50:28;;;;;;;15.10;3.00;;;14.90;99.90;;;;;;5135688;27;20375;-80
2022/10/11 09:53:00;;;;;;;15.65;2.38;;;15.00;99.90;;;;;;5159492;27;20050;-81
2022/10/11 09:55:34;;;;;;;12.65;1.88;;;15.10;99.90;;;;;;5152530;27;20490;-81
2022/10/11 09:58:02;;;;;;;12.95;2.00;;;15.10;99.90;;;;;;5134298;27;20054;-80
2022/10/11 10:00:32;;;;;;;18.95;2.28;;;15.20;99.90;;;;;;5153100;27;20051;-81
2022/10/11 10:03:04;;;;;;;6.60;1.92;;;15.30;99.90;;;;;;5152561;27;20486;-81
2022/10/11 10:05:32;;;;;;;14.68;2.42;;;15.40;99.90;;;;;;5141044;27;20050;-81
2022/10/11 10:08:02;;;;;;;6.93;1.73;;;15.50;99.90;;;;;;5134215;27;20126;-81
2022/10/11 10:10:32;;;;;;;9.30;1.92;;;15.60;99.90;;;;;;5152816;27;20153;-82
2022/10/11 10:13:01;;;;;;;11.88;1.50;;;15.80;99.90;;;;;;5133836;27;20138;-81
2022/10/11 10:15:34;;;;;;;8.38;1.45;;;15.90;99.90;;;;;;5133941;27;20058;-81
2022/10/11 10:18:00;;;;;;;12.48;1.67;;;16.20;99.90;;;;;;5135684;27;20133;-80
2022/10/11 10:20:33;;;;;;;8.02;1.90;;;16.30;99.90;;;;;;5162947;27;20123;-81
2022/10/11 10:23:08;;;;;;;10.57;1.95;;;16.40;99.90;;;;;;5133590;27;20142;-81
2022/10/11 10:25:37;;;;;;;8.35;1.63;;;16.60;99.90;;;;;;5134831;27;20047;-81
2022/10/11 10:28:26;;;;;;;14.05;2.83;;;16.70;99.90;;;;;;5157316;27;20115;-81
2022/10/11 10:30:53;;;;;;;7.80;1.15;;;16.70;99.90;;;;;;5138139;27;20410;-81
2022/10/11 10:33:31;;;;;;;10.85;1.75;;;16.70;99.90;;;;;;5162671;27;20061;-79
2022/10/11 10:36:06;;;;;;;12.65;1.55;;;16.80;99.90;;;;;;5137868;27;20051;-82
2022/10/11 10:38:45;;;;;;;12.68;2.10;;;16.80;99.90;;;;;;5137710;27;20529;-79
2022/10/11 10:41:13;;;;;;;12.63;1.90;;;16.90;99.90;;;;;;5156632;27;20050;-79
2022/10/11 10:43:42;;;;;;;11.82;1.77;;;16.90;99.90;;;;;;5138042;27;20499;-79
2022/10/11 10:46:19;;;;;;;13.90;2.90;;;16.70;99.90;;;;;;5156398;27;20095;-79
2022/10/11 10:49:05;;;;;;;13.32;1.90;;;16.70;99.90;;;;;;5163299;27;20398;-79
2022/10/11 10:52:04;;;;;;;10.82;1.52;;;16.70;99.90;;;;;;5140502;27;20093;-81
2022/10/11 10:55:12;;;;;;;11.63;2.20;;;16.70;99.90;;;;;;5137990;27;20053;-81
2022/10/11 10:57:59;;;;;;;12.18;2.17;;;16.90;99.90;;;;;;5099111;27;20531;-80
2022/10/11 11:00:35;;;;;;;14.43;1.77;;;17.00;99.90;;;;;;5140274;27;20050;-80
2022/10/11 11:03:28;;;;;;;11.45;1.90;;;17.20;99.90;;;;;;5145031;27;20043;-81
2022/10/11 11:06:04;;;;;;;11.05;2.10;;;17.30;99.90;;;;;;5156184;27;20034;-82
2022/10/11 11:08:59;;;;;;;10.23;1.63;;;17.50;99.90;;;;;;5137179;27;20062;-81
2022/10/11 11:11:46;;;;;;;17.67;2.25;;;18.30;99.90;;;;;;5136847;27;20498;-81
2022/10/11 11:14:18;;;;;;;12.50;1.75;;;19.20;99.90;;;;;;5155789;27;20042;-80
2022/10/11 11:16:47;;;;;;;7.93;1.30;;;19.80;99.90;;;;;;5144846;27;20046;-80
2022/10/11 11:19:34;;;;;;;9.50;1.83;;;20.00;98.70;;;;;;5137322;27;20035;-81
2022/10/11 11:22:28;;;;;;;11.02;1.65;;;20.00;97.80;;;;;;5155344;27;20058;-80
2022/10/11 11:24:59;;;;;;;6.93;1.50;;;20.70;97.50;;;;;;5089146;27;20051;-81
2022/10/11 11:28:03;;;;;;;9.15;1.70;;;21.60;96.80;;;;;;5155542;27;20379;-79
2022/10/11 11:30:34;;;;;;;8.98;1.70;;;22.30;95.10;;;;;;5036998;28;20088;-79
2022/10/11 11:33:17;;;;;;;13.43;2.58;;;22.70;93.90;;;;;;5141881;27;20406;-80
2022/10/11 11:35:47;;;;;;;9.50;1.70;;;23.10;92.30;;;;;;5136547;27;20043;-79
2022/10/11 11:38:19;;;;;;;14.52;1.75;;;23.20;91.60;;;;;;5153961;27;20498;-79
2022/10/11 11:41:10;;;;;;;7.70;1.30;;;22.80;92.30;;;;;;5154998;27;20053;-80
2022/10/11 11:43:38;;;;;;;6.88;1.77;;;23.30;90.70;;;;;;5154875;27;20046;-80
2022/10/11 11:46:23;;;;;;;15.02;2.70;;;22.90;90.90;;;;;;5163107;27;20047;-80
2022/10/11 11:48:52;;;;;;;6.88;1.77;;;22.50;90.30;;;;;;5136588;27;20051;-82
2022/10/11 11:51:29;;;;;;;8.23;1.80;;;22.70;90.70;;;;;;5154845;27;20047;-81
2022/10/11 11:54:05;;;;;;;11.30;1.80;;;23.10;90.80;;;;;;5154674;27;20054;-79
2022/10/11 11:56:52;;;;;;;9.23;1.40;;;24.20;90.40;;;;;;5154397;27;20452;-80
2022/10/11 11:59:30;;;;;;;10.13;1.85;;;23.60;85.60;;;;;;5159771;27;20129;-79
2022/10/11 12:02:14;;;;;;;7.05;1.73;;;23.50;89.70;;;;;;5135661;27;20042;-80
2022/10/11 12:04:44;;;;;;;10.30;1.75;;;23.00;89.00;;;;;;5118866;27;20046;-80
2022/10/11 12:07:22;;;;;;;8.80;1.85;;;23.30;90.30;;;;;;5135551;27;20119;-80
2022/10/11 12:09:53;;;;;;;10.95;1.73;;;24.50;88.20;;;;;;5135972;27;20510;-80
2022/10/11 12:12:34;;;;;;;6.90;1.20;;;25.00;86.80;;;;;;5154404;27;20054;-80
2022/10/11 12:15:36;;;;;;;9.35;2.20;;;25.80;82.80;;;;;;5142088;27;20043;-80
2022/10/11 12:18:11;;;;;;;10.45;2.28;;;25.80;83.80;;;;;;5080759;27;20051;-80
2022/10/11 12:20:40;;;;;;;11.00;1.83;;;26.20;82.00;;;;;;5154328;27;20054;-79
2022/10/11 12:23:28;;;;;;;8.70;1.35;;;26.60;79.90;;;;;;5134928;27;20118;-79
2022/10/11 12:26:19;;;;;;;12.00;1.60;;;26.40;78.60;;;;;;5155618;27;20050;-79
2022/10/11 12:28:58;;;;;;;10.40;2.10;;;26.30;76.80;;;;;;5163349;27;20054;-80
2022/10/11 12:31:30;;;;;;;13.30;2.28;;;26.40;79.70;;;;;;5118298;27;20162;-80
2022/10/11 12:34:36;;;;;;;10.48;1.60;;;26.90;76.70;;;;;;5153867;27;20062;-79
2022/10/11 12:37:24;;;;;;;11.02;1.77;;;28.00;72.70;;;;;;5153353;27;20050;-82
2022/10/11 12:39:54;;;;;;;9.77;1.40;;;28.40;72.60;;;;;;5134686;27;20134;-79
2022/10/11 12:42:31;;;;;;;13.63;3.03;;;29.00;70.60;;;;;;5160883;27;20042;-79
2022/10/11 12:45:11;;;;;;;5.75;1.58;;;28.90;66.90;;;;;;5155928;27;20042;-81
2022/10/11 12:48:06;;;;;;;6.20;1.60;;;28.70;65.40;;;;;;5117845;27;20248;-81
2022/10/11 12:51:02;;;;;;;8.52;1.58;;;28.40;67.70;;;;;;5153201;27;20068;-81
2022/10/11 12:53:40;;;;;;;8.45;1.95;;;28.80;67.20;;;;;;5152945;27;20547;-81
2022/10/11 12:56:24;;;;;;;7.40;1.50;;;29.00;63.30;;;;;;5139580;27;20513;-80
2022/10/11 12:58:59;;;;;;;;;;;29.10;61.70;;;;;;5154287;27;20051;-81
2022/10/11 13:01:32;;;;;;;7.20;1.67;;;29.20;62.30;;;;;;5134739;27;20447;-82
2022/10/11 13:04:10;;;;;;;9.43;1.90;;;29.50;61.70;;;;;;5153480;27;20049;-81
2022/10/11 13:06:54;;;;;;;10.70;1.88;;;29.80;60.30;;;;;;5145223;27;20046;-80